createdAt,value
2023-02-17T00:04:45.683Z,1.75
2023-02-17T00:09:47.718Z,1.75
2023-02-17T00:14:49.844Z,1.76
2023-02-17T00:19:55.129Z,1.74
2023-02-17T00:24:57.136Z,1.74
2023-02-17T00:29:59.297Z,1.76
2023-02-17T00:35:01.391Z,1.75
2023-02-17T00:40:03.672Z,1.75
2023-02-17T00:45:06.189Z,1.76
2023-02-17T00:50:08.627Z,1.74
2023-02-17T00:55:10.713Z,1.73
2023-02-17T01:00:13.331Z,1.76
2023-02-17T01:05:15.449Z,1.76
2023-02-17T01:10:17.803Z,1.75
2023-02-17T01:15:19.937Z,1.77
2023-02-17T01:20:22.085Z,1.78
2023-02-17T01:25:24.146Z,1.78
2023-02-17T01:30:26.227Z,1.80
2023-02-17T01:35:28.326Z,1.82
2023-02-17T01:40:30.635Z,1.84
2023-02-17T01:45:36.564Z,1.85
2023-02-17T01:50:52.389Z,1.86
2023-02-17T01:55:55.468Z,1.88
2023-02-17T02:06:18.546Z,1.91
2023-02-17T02:11:20.838Z,1.91
2023-02-17T02:16:58.340Z,1.95
2023-02-17T02:23:05.086Z,1.96
2023-02-17T02:28:34.754Z,1.97
2023-02-17T02:33:45.503Z,2.01
2023-02-17T02:38:52.164Z,2.02
2023-02-17T02:43:54.390Z,2.05
2023-02-17T02:48:56.420Z,2.04
2023-02-17T02:54:11.206Z,2.06
2023-02-17T02:59:27.813Z,2.07
2023-02-17T03:04:37.257Z,2.10
2023-02-17T03:09:39.868Z,2.11
2023-02-17T03:14:43.685Z,2.13
2023-02-17T03:19:48.718Z,2.15
2023-02-17T03:24:50.970Z,2.16
2023-02-17T03:29:53.274Z,2.17
2023-02-17T03:34:55.309Z,2.20
2023-02-17T03:39:57.303Z,2.20
2023-02-17T03:44:59.275Z,2.22
2023-02-17T03:50:01.338Z,2.23
2023-02-17T03:55:03.370Z,2.24
2023-02-17T04:00:07.582Z,2.25
2023-02-17T04:05:09.609Z,2.25
2023-02-17T04:10:11.697Z,2.26
2023-02-17T04:15:13.762Z,2.29
2023-02-17T04:20:15.789Z,2.29
2023-02-17T04:25:17.868Z,2.29
2023-02-17T04:30:19.999Z,2.32
2023-02-17T04:35:22.151Z,2.34
2023-02-17T04:40:24.194Z,2.34
2023-02-17T04:45:26.307Z,2.34
2023-02-17T04:50:28.667Z,2.36
2023-02-17T04:55:31.441Z,2.39
2023-02-17T05:00:33.454Z,2.39
2023-02-17T05:05:35.530Z,2.41
2023-02-17T05:10:37.575Z,2.42
2023-02-17T05:15:39.619Z,2.44
2023-02-17T05:20:41.844Z,2.43
2023-02-17T05:25:43.918Z,2.45
2023-02-17T05:30:45.934Z,2.48
2023-02-17T05:35:47.949Z,2.46
2023-02-17T05:40:50.634Z,2.48
2023-02-17T05:45:52.752Z,2.55
2023-02-17T05:50:54.733Z,2.56
2023-02-17T05:55:56.966Z,2.56
2023-02-17T06:00:59.028Z,2.58
2023-02-17T06:06:01.147Z,2.60
2023-02-17T06:11:03.255Z,2.63
2023-02-17T06:16:06.111Z,2.67
2023-02-17T06:21:08.250Z,2.68
2023-02-17T06:26:10.286Z,2.71
2023-02-17T06:31:12.605Z,2.73
2023-02-17T06:36:14.695Z,2.74
2023-02-17T06:41:16.672Z,2.76
2023-02-17T06:46:18.767Z,2.77
2023-02-17T06:51:20.811Z,2.80
2023-02-17T06:56:22.858Z,2.85
2023-02-17T07:01:26.673Z,2.86
2023-02-17T07:06:28.663Z,2.90
2023-02-17T07:11:33.672Z,2.92
2023-02-17T07:16:35.714Z,2.94
2023-02-17T07:21:37.763Z,2.97
2023-02-17T07:26:41.549Z,3.01
2023-02-17T07:31:43.715Z,3.02
2023-02-17T07:36:45.848Z,3.05
2023-02-17T07:41:47.933Z,3.07
2023-02-17T07:46:49.966Z,3.11
2023-02-17T07:51:51.986Z,3.14
2023-02-17T07:56:54.049Z,3.19
2023-02-17T08:01:56.127Z,3.22
2023-02-17T08:06:58.085Z,3.27
2023-02-17T08:12:18.712Z,3.30
2023-02-17T08:17:22.078Z,3.38
2023-02-17T08:22:24.084Z,3.40
2023-02-17T08:27:26.176Z,3.46
2023-02-17T08:32:28.273Z,3.50
2023-02-17T08:37:32.023Z,3.55
2023-02-17T08:42:34.050Z,3.61
2023-02-17T08:47:36.916Z,3.67
2023-02-17T08:52:38.957Z,3.72
2023-02-17T08:57:41.317Z,3.75
2023-02-17T09:02:45.439Z,3.82
2023-02-17T09:07:47.642Z,3.89
2023-02-17T09:12:49.882Z,3.93
2023-02-17T09:17:51.967Z,3.98
2023-02-17T09:22:54.082Z,4.02
2023-02-17T09:27:57.151Z,4.08
2023-02-17T09:33:00.890Z,4.16
2023-02-17T09:38:03.641Z,4.23
2023-02-17T09:43:05.696Z,4.27
2023-02-17T09:48:11.994Z,4.35
2023-02-17T09:53:35.644Z,4.42
2023-02-17T09:58:43.835Z,4.50
2023-02-17T10:03:52.449Z,4.55
2023-02-17T10:08:57.252Z,4.65
2023-02-17T10:14:06.756Z,4.74
2023-02-17T10:19:16.343Z,4.80
2023-02-17T10:24:18.448Z,4.85
2023-02-17T10:29:59.349Z,4.93
2023-02-17T10:35:24.359Z,5.00
2023-02-17T10:40:28.464Z,5.06
2023-02-17T10:45:41.617Z,5.13
2023-02-17T10:50:46.056Z,5.18
2023-02-17T10:55:54.821Z,5.23
2023-02-17T11:00:57.721Z,5.26
2023-02-17T11:06:16.609Z,5.30
2023-02-17T11:11:22.251Z,5.36
2023-02-17T11:16:38.699Z,5.38
2023-02-17T11:21:44.259Z,5.41
2023-02-17T11:27:00.436Z,5.44
2023-02-17T11:32:09.986Z,5.47
2023-02-17T11:37:11.996Z,5.51
2023-02-17T11:42:23.917Z,5.53
2023-02-17T11:48:07.275Z,5.57
2023-02-17T11:53:14.867Z,5.59
2023-02-17T11:58:43.138Z,5.65
2023-02-17T12:04:07.975Z,5.66
2023-02-17T12:09:28.740Z,5.69
2023-02-17T12:14:52.076Z,5.73
2023-02-17T12:19:59.810Z,5.74
2023-02-17T12:25:23.513Z,5.76
2023-02-17T12:30:52.880Z,5.81
2023-02-17T12:35:59.016Z,5.83
2023-02-17T12:41:10.454Z,5.84
2023-02-17T12:46:16.334Z,5.88
2023-02-17T12:51:26.584Z,5.90
2023-02-17T12:57:03.662Z,5.93
2023-02-17T13:02:11.120Z,5.95
2023-02-17T13:07:34.379Z,5.97
2023-02-17T13:12:40.996Z,6.00
2023-02-17T13:18:01.656Z,6.01
2023-02-17T13:23:07.443Z,6.03
2023-02-17T13:28:34.616Z,6.05
2023-02-17T13:33:44.082Z,6.06
2023-02-17T13:39:27.960Z,6.09
2023-02-17T13:44:41.309Z,6.10
2023-02-17T13:49:43.257Z,6.13
2023-02-17T13:55:03.391Z,6.15
2023-02-17T14:00:27.089Z,6.18
2023-02-17T14:05:41.021Z,6.20
2023-02-17T14:10:43.934Z,6.20
2023-02-17T14:16:00.268Z,6.21
2023-02-17T14:21:09.480Z,6.24
2023-02-17T14:26:27.175Z,6.26
2023-02-17T14:31:30.194Z,6.26
2023-02-17T14:36:36.038Z,6.29
2023-02-17T14:41:38.370Z,6.31
2023-02-17T14:46:40.678Z,6.32
2023-02-17T14:51:42.931Z,6.33
2023-02-17T14:57:08.452Z,6.34
2023-02-17T15:02:20.324Z,6.36
2023-02-17T15:07:23.484Z,6.37
2023-02-17T15:12:28.109Z,6.39
2023-02-17T15:17:30.726Z,6.40
2023-02-17T15:22:35.490Z,6.41
2023-02-17T15:27:38.108Z,6.44
2023-02-17T15:32:41.044Z,6.44
2023-02-17T15:37:44.005Z,6.47
2023-02-17T15:42:50.920Z,6.47
2023-02-17T15:48:07.587Z,6.47
2023-02-17T15:53:10.029Z,6.49
2023-02-17T15:58:19.381Z,6.50
2023-02-17T16:03:21.759Z,6.50
2023-02-17T16:08:24.264Z,6.52
2023-02-17T16:13:27.752Z,6.52
2023-02-17T16:18:31.690Z,6.54
2023-02-17T16:23:33.979Z,6.53
2023-02-17T16:28:36.326Z,6.55
2023-02-17T16:33:39.108Z,6.57
2023-02-17T16:38:42.457Z,6.58
2023-02-17T16:43:46.320Z,6.59
2023-02-17T16:48:48.992Z,6.61
2023-02-17T16:53:51.236Z,6.61
2023-02-17T16:58:53.417Z,6.60
2023-02-17T17:03:56.343Z,6.63
2023-02-17T17:08:59.009Z,6.64
2023-02-17T17:14:01.499Z,6.64
2023-02-17T17:19:04.362Z,6.67
2023-02-17T17:24:06.960Z,6.68
2023-02-17T17:29:13.075Z,6.69
2023-02-17T17:34:15.761Z,6.74
2023-02-17T17:39:22.620Z,6.77
2023-02-17T17:44:28.424Z,6.76
2023-02-17T17:49:32.417Z,6.81
2023-02-17T17:54:36.673Z,6.83
2023-02-17T17:59:39.507Z,6.87
2023-02-17T18:04:42.308Z,6.90
2023-02-17T18:09:44.827Z,6.95
2023-02-17T18:14:49.879Z,6.99
2023-02-17T18:19:55.791Z,7.01
2023-02-17T18:24:59.040Z,7.06
2023-02-17T18:30:02.709Z,7.10
2023-02-17T18:35:06.735Z,7.13
2023-02-17T18:40:14.679Z,7.16
2023-02-17T18:45:18.275Z,7.23
2023-02-17T18:50:21.313Z,7.25
2023-02-17T18:55:24.302Z,7.29
2023-02-17T19:00:27.793Z,7.29
2023-02-17T19:05:30.876Z,7.35
2023-02-17T19:10:34.163Z,7.31
2023-02-17T19:15:38.917Z,7.40
2023-02-17T19:20:45.022Z,7.45
2023-02-17T19:25:49.008Z,7.48
2023-02-17T19:30:52.032Z,7.50
2023-02-17T19:35:55.776Z,7.54
2023-02-17T19:41:00.851Z,7.59
2023-02-17T19:46:03.933Z,7.62
2023-02-17T19:51:09.097Z,7.64
2023-02-17T19:56:25.876Z,7.67
2023-02-17T20:01:32.205Z,7.72
2023-02-17T20:06:42.416Z,7.75
2023-02-17T20:11:47.212Z,7.79
2023-02-17T20:16:50.849Z,7.81
2023-02-17T20:21:55.276Z,7.83
2023-02-17T20:27:01.003Z,7.86
2023-02-17T20:32:04.503Z,7.86
2023-02-17T20:37:08.969Z,7.87
2023-02-17T20:42:12.025Z,7.89
2023-02-17T20:47:14.812Z,7.88
2023-02-17T20:52:17.616Z,7.89
2023-02-17T20:57:20.999Z,7.92
2023-02-17T21:02:24.297Z,7.94
2023-02-17T21:07:29.989Z,7.92
2023-02-17T21:12:32.775Z,7.93
2023-02-17T21:17:36.458Z,7.91
2023-02-17T21:22:39.682Z,7.92
2023-02-17T21:27:42.823Z,7.90
2023-02-17T21:32:45.370Z,7.88
2023-02-17T21:37:47.877Z,7.86
2023-02-17T21:43:08.528Z,7.86
2023-02-17T21:48:10.996Z,7.83
2023-02-17T21:53:13.390Z,7.75
2023-02-17T21:58:16.003Z,7.76
2023-02-17T22:03:18.458Z,7.71
2023-02-17T22:08:20.422Z,7.69
2023-02-17T22:13:22.601Z,7.63
2023-02-17T22:18:25.067Z,7.59
2023-02-17T22:23:27.343Z,7.51
2023-02-17T22:28:29.328Z,7.46
2023-02-17T22:33:31.529Z,7.41
2023-02-17T22:38:34.063Z,7.39
2023-02-17T22:43:38.046Z,7.34
2023-02-17T22:48:40.045Z,7.26
2023-02-17T22:53:42.944Z,7.21
2023-02-17T22:58:45.108Z,7.15
2023-02-17T23:03:52.965Z,7.05
2023-02-17T23:08:57.004Z,7.00
2023-02-17T23:13:58.970Z,6.95
2023-02-17T23:19:01.429Z,6.89
2023-02-17T23:24:03.369Z,6.83
2023-02-17T23:29:05.542Z,6.77
2023-02-17T23:34:08.392Z,6.74
2023-02-17T23:39:11.048Z,6.69
2023-02-17T23:44:14.186Z,6.65
2023-02-17T23:49:17.766Z,6.59
2023-02-17T23:54:19.899Z,6.50
2023-02-17T23:59:22.043Z,6.46
